地図

経路データ

SID SEASON NUMBER BASIN SUBBASIN NAME ISO_TIME NATURE LAT LON WMO_WIND WMO_PRES WMO_AGENCY TRACK_TYPE DIST2LAND LANDFALL IFLAG USA_AGENCY USA_ATCF_ID USA_LAT USA_LON USA_RECORD USA_STATUS USA_WIND USA_PRES USA_SSHS USA_R34_NE USA_R34_SE USA_R34_SW USA_R34_NW USA_R50_NE USA_R50_SE USA_R50_SW USA_R50_NW USA_R64_NE USA_R64_SE USA_R64_SW USA_R64_NW USA_POCI USA_ROCI USA_RMW USA_EYE TOKYO_LAT TOKYO_LON TOKYO_GRADE TOKYO_WIND TOKYO_PRES TOKYO_R50_DIR TOKYO_R50_LONG TOKYO_R50_SHORT TOKYO_R30_DIR TOKYO_R30_LONG TOKYO_R30_SHORT TOKYO_LAND CMA_LAT CMA_LON CMA_CAT CMA_WIND CMA_PRES HKO_LAT HKO_LON HKO_CAT HKO_WIND HKO_PRES NEWDELHI_LAT NEWDELHI_LON NEWDELHI_GRADE NEWDELHI_WIND NEWDELHI_PRES NEWDELHI_CI NEWDELHI_DP NEWDELHI_POCI REUNION_LAT REUNION_LON REUNION_TYPE REUNION_WIND REUNION_PRES REUNION_TNUM REUNION_CI REUNION_RMW REUNION_R34_NE REUNION_R34_SE REUNION_R34_SW REUNION_R34_NW REUNION_R50_NE REUNION_R50_SE REUNION_R50_SW REUNION_R50_NW REUNION_R64_NE REUNION_R64_SE REUNION_R64_SW REUNION_R64_NW BOM_LAT BOM_LON BOM_TYPE BOM_WIND BOM_PRES BOM_TNUM BOM_CI BOM_RMW BOM_R34_NE BOM_R34_SE BOM_R34_SW BOM_R34_NW BOM_R50_NE BOM_R50_SE BOM_R50_SW BOM_R50_NW BOM_R64_NE BOM_R64_SE BOM_R64_SW BOM_R64_NW BOM_ROCI BOM_POCI BOM_EYE BOM_POS_METHOD BOM_PRES_METHOD NADI_LAT NADI_LON NADI_CAT NADI_WIND NADI_PRES WELLINGTON_LAT WELLINGTON_LON WELLINGTON_WIND WELLINGTON_PRES DS824_LAT DS824_LON DS824_STAGE DS824_WIND DS824_PRES TD9636_LAT TD9636_LON TD9636_STAGE TD9636_WIND TD9636_PRES TD9635_LAT TD9635_LON TD9635_WIND TD9635_PRES TD9635_ROCI NEUMANN_LAT NEUMANN_LON NEUMANN_CLASS NEUMANN_WIND NEUMANN_PRES MLC_LAT MLC_LON MLC_CLASS MLC_WIND MLC_PRES USA_GUST BOM_GUST BOM_GUST_PER REUNION_GUST REUNION_GUST_PER USA_SEAHGT USA_SEARAD_NE USA_SEARAD_SE USA_SEARAD_SW USA_SEARAD_NW STORM_SPEED STORM_DIR
1999231N14341 1999 64 NA NA CINDY 1999-08-19 00:00:00 TS 13.5000 -18.9000 30 1003 hurdat_atl main 202 202 O_____________ hurdat_atl AL041999 13.5000 -18.9000 TD 30 1003 -1 14 283
1999231N14341 1999 64 NA NA CINDY 1999-08-19 03:00:00 TS 13.6654 -19.6148 main 252 252 P_____________ AL041999 13.6654 -19.6148 TD 30 1003 -1 14 282
1999231N14341 1999 64 NA NA CINDY 1999-08-19 06:00:00 TS 13.8000 -20.3000 30 1003 hurdat_atl main 318 318 O_____________ hurdat_atl AL041999 13.8000 -20.3000 TD 30 1003 -1 13 280
1999231N14341 1999 64 NA NA CINDY 1999-08-19 09:00:00 TS 13.8798 -20.9300 main 377 377 P_____________ AL041999 13.8798 -20.9300 TD 30 1003 -1 12 275
1999231N14341 1999 64 NA NA CINDY 1999-08-19 12:00:00 TS 13.9000 -21.5000 30 1003 hurdat_atl main 440 440 O_____________ hurdat_atl AL041999 13.9000 -21.5000 TD 30 1003 -1 11 269
1999231N14341 1999 64 NA NA CINDY 1999-08-19 15:00:00 TS 13.8648 -22.0226 main 493 493 P_____________ AL041999 13.8648 -22.0226 TD 30 1003 -1 10 264
1999231N14341 1999 64 NA NA CINDY 1999-08-19 18:00:00 TS 13.8000 -22.5000 30 1003 hurdat_atl main 548 548 O_____________ hurdat_atl AL041999 13.8000 -22.5000 TD 30 1003 -1 9 263
1999231N14341 1999 64 NA NA CINDY 1999-08-19 21:00:00 TS 13.7499 -22.9575 main 603 603 P_____________ AL041999 13.7499 -22.9575 TD 30 1002 -1 9 263
1999231N14341 1999 64 NA NA CINDY 1999-08-20 00:00:00 TS 13.7000 -23.4000 30 1002 hurdat_atl main 646 646 O_____________ hurdat_atl AL041999 13.7000 -23.4000 TD 30 1002 -1 9 263
1999231N14341 1999 64 NA NA CINDY 1999-08-20 03:00:00 TS 13.6498 -23.8350 main 690 690 P_____________ AL041999 13.6498 -23.8350 TD 30 1002 -1 9 263
1999231N14341 1999 64 NA NA CINDY 1999-08-20 06:00:00 TS 13.6000 -24.3000 30 1002 hurdat_atl main 743 743 O_____________ hurdat_atl AL041999 13.6000 -24.3000 TD 30 1002 -1 10 263
1999231N14341 1999 64 NA NA CINDY 1999-08-20 09:00:00 TS 13.5349 -24.8276 main 799 799 P_____________ AL041999 13.5349 -24.8276 TD 30 1002 -1 11 265
1999231N14341 1999 64 NA NA CINDY 1999-08-20 12:00:00 TS 13.5000 -25.4000 30 1002 hurdat_atl main 862 862 O_____________ hurdat_atl AL041999 13.5000 -25.4000 TD 30 1002 -1 11 270
1999231N14341 1999 64 NA NA CINDY 1999-08-20 15:00:00 TS 13.5425 -25.9999 main 926 926 P_____________ AL041999 13.5425 -25.9999 TD 32 1001 -1 12 275
1999231N14341 1999 64 NA NA CINDY 1999-08-20 18:00:00 TS 13.6000 -26.6000 35 1001 hurdat_atl main 989 989 O_____________ hurdat_atl AL041999 13.6000 -26.6000 TS 35 1001 0 11 273
1999231N14341 1999 64 NA NA CINDY 1999-08-20 21:00:00 TS 13.5923 -27.1577 main 1053 1053 P_____________ AL041999 13.5923 -27.1577 TS 37 1000 0 11 270
1999231N14341 1999 64 NA NA CINDY 1999-08-21 00:00:00 TS 13.6000 -27.7000 40 1000 hurdat_atl main 1107 1107 O_____________ hurdat_atl AL041999 13.6000 -27.7000 TS 40 1000 0 11 275
1999231N14341 1999 64 NA NA CINDY 1999-08-21 03:00:00 TS 13.6925 -28.2649 main 1170 1170 P_____________ AL041999 13.6925 -28.2649 TS 45 998 0 11 281
1999231N14341 1999 64 NA NA CINDY 1999-08-21 06:00:00 TS 13.8000 -28.8000 50 997 hurdat_atl main 1222 1222 O_____________ hurdat_atl AL041999 13.8000 -28.8000 TS 50 997 0 10 279
1999231N14341 1999 64 NA NA CINDY 1999-08-21 09:00:00 TS 13.8497 -29.2501 main 1276 1275 P_____________ AL041999 13.8497 -29.2501 TS 52 995 0 9 277
1999231N14341 1999 64 NA NA CINDY 1999-08-21 12:00:00 TS 13.9000 -29.7000 55 994 hurdat_atl main 1318 1318 O_____________ hurdat_atl AL041999 13.9000 -29.7000 TS 55 994 0 10 279
1999231N14341 1999 64 NA NA CINDY 1999-08-21 15:00:00 TS 14.0001 -30.2499 main 1370 1370 P_____________ AL041999 14.0001 -30.2499 TS 57 992 0 11 281
1999231N14341 1999 64 NA NA CINDY 1999-08-21 18:00:00 TS 14.1000 -30.8000 60 990 hurdat_atl main 1434 1434 O_____________ hurdat_atl AL041999 14.1000 -30.8000 TS 60 990 0 10 278
1999231N14341 1999 64 NA NA CINDY 1999-08-21 21:00:00 TS 14.1499 -31.2876 main 1488 1487 P_____________ AL041999 14.1499 -31.2876 TS 62 988 0 9 277
1999231N14341 1999 64 NA NA CINDY 1999-08-22 00:00:00 TS 14.2000 -31.7000 65 987 hurdat_atl main 1530 1530 O_____________ hurdat_atl AL041999 14.2000 -31.7000 HU 65 987 1 7 282
1999231N14341 1999 64 NA NA CINDY 1999-08-22 03:00:00 TS 14.2999 -32.0375 main 1562 1562 P_____________ AL041999 14.2999 -32.0375 HU 65 987 1 6 289
1999231N14341 1999 64 NA NA CINDY 1999-08-22 06:00:00 TS 14.4000 -32.3000 65 987 hurdat_atl main 1593 1593 O_____________ hurdat_atl AL041999 14.4000 -32.3000 HU 65 987 1 5 289
1999231N14341 1999 64 NA NA CINDY 1999-08-22 09:00:00 TS 14.4574 -32.5150 main 1614 1614 P_____________ AL041999 14.4574 -32.5150 HU 65 987 1 4 284
1999231N14341 1999 64 NA NA CINDY 1999-08-22 12:00:00 TS 14.5000 -32.7000 65 987 hurdat_atl main 1636 1636 O_____________ hurdat_atl AL041999 14.5000 -32.7000 HU 65 987 1 4 283
1999231N14341 1999 64 NA NA CINDY 1999-08-22 15:00:00 TS 14.5349 -32.8701 main 1657 1657 P_____________ AL041999 14.5349 -32.8701 HU 62 988 0 4 284
1999231N14341 1999 64 NA NA CINDY 1999-08-22 18:00:00 TS 14.6000 -33.1000 60 990 hurdat_atl main 1678 1678 O_____________ hurdat_atl AL041999 14.6000 -33.1000 TS 60 990 0 6 289
1999231N14341 1999 64 NA NA CINDY 1999-08-22 21:00:00 TS 14.7275 -33.4550 main 1721 1720 P_____________ AL041999 14.7275 -33.4550 TS 55 993 0 8 291
1999231N14341 1999 64 NA NA CINDY 1999-08-23 00:00:00 TS 14.9000 -33.9000 50 997 hurdat_atl main 1763 1763 O_____________ hurdat_atl AL041999 14.9000 -33.9000 TS 50 997 0 10 292
1999231N14341 1999 64 NA NA CINDY 1999-08-23 03:00:00 TS 15.0925 -34.3850 main 1816 1816 P_____________ AL041999 15.0925 -34.3850 TS 50 997 0 10 292
1999231N14341 1999 64 NA NA CINDY 1999-08-23 06:00:00 TS 15.3000 -34.9000 50 997 hurdat_atl main 1870 1870 O_____________ hurdat_atl AL041999 15.3000 -34.9000 TS 50 997 0 11 293
1999231N14341 1999 64 NA NA CINDY 1999-08-23 09:00:00 TS 15.4999 -35.4001 main 1924 1924 P_____________ AL041999 15.4999 -35.4001 TS 50 997 0 10 293
1999231N14341 1999 64 NA NA CINDY 1999-08-23 12:00:00 TS 15.7000 -35.9000 50 997 hurdat_atl main 1977 1977 O_____________ hurdat_atl AL041999 15.7000 -35.9000 TS 50 997 0 10 292
1999231N14341 1999 64 NA NA CINDY 1999-08-23 15:00:00 TS 15.8923 -36.3927 main 2031 2031 P_____________ AL041999 15.8923 -36.3927 TS 50 997 0 10 293
1999231N14341 1999 64 NA NA CINDY 1999-08-23 18:00:00 TS 16.1000 -36.9000 50 997 hurdat_atl main 2055 2027 O_____________ hurdat_atl AL041999 16.1000 -36.9000 TS 50 997 0 11 295
1999231N14341 1999 64 NA NA CINDY 1999-08-23 21:00:00 TS 16.3574 -37.4350 main 2035 2001 P_____________ AL041999 16.3574 -37.4350 TS 50 997 0 12 295
1999231N14341 1999 64 NA NA CINDY 1999-08-24 00:00:00 TS 16.6000 -38.0000 50 997 hurdat_atl main 2001 1970 O_____________ hurdat_atl AL041999 16.6000 -38.0000 TS 50 997 0 12 290
1999231N14341 1999 64 NA NA CINDY 1999-08-24 03:00:00 TS 16.7647 -38.5778 main 1970 1932 P_____________ AL041999 16.7647 -38.5778 TS 50 997 0 12 285
1999231N14341 1999 64 NA NA CINDY 1999-08-24 06:00:00 TS 16.9000 -39.2000 50 997 hurdat_atl main 1932 1896 O_____________ hurdat_atl AL041999 16.9000 -39.2000 TS 50 997 0 13 283
1999231N14341 1999 64 NA NA CINDY 1999-08-24 09:00:00 TS 17.0497 -39.8701 main 1889 1857 P_____________ AL041999 17.0497 -39.8701 TS 50 997 0 14 283
1999231N14341 1999 64 NA NA CINDY 1999-08-24 12:00:00 TS 17.2000 -40.6000 50 997 hurdat_atl main 1857 1812 O_____________ hurdat_atl AL041999 17.2000 -40.6000 TS 50 997 0 15 282
1999231N14341 1999 64 NA NA CINDY 1999-08-24 15:00:00 TS 17.3500 -41.4001 main 1821 1780 P_____________ AL041999 17.3500 -41.4001 TS 50 997 0 16 281
1999231N14341 1999 64 NA NA CINDY 1999-08-24 18:00:00 TS 17.5000 -42.2000 50 997 hurdat_atl main 1780 1744 O_____________ hurdat_atl AL041999 17.5000 -42.2000 TS 50 997 0 15 281
1999231N14341 1999 64 NA NA CINDY 1999-08-24 21:00:00 TS 17.6272 -42.9303 main 1744 1717 P_____________ AL041999 17.6272 -42.9303 TS 52 995 0 14 283
1999231N14341 1999 64 NA NA CINDY 1999-08-25 00:00:00 TS 17.8000 -43.6000 55 994 hurdat_atl main 1717 1699 O_____________ hurdat_atl AL041999 17.8000 -43.6000 TS 55 994 0 13 289
1999231N14341 1999 64 NA NA CINDY 1999-08-25 03:00:00 TS 18.0547 -44.2227 main 1708 1697 P_____________ AL041999 18.0547 -44.2227 TS 55 994 0 13 298
1999231N14341 1999 64 NA NA CINDY 1999-08-25 06:00:00 TS 18.4000 -44.8000 55 994 hurdat_atl main 1703 1698 O_____________ hurdat_atl AL041999 18.4000 -44.8000 TS 55 994 0 13 305
1999231N14341 1999 64 NA NA CINDY 1999-08-25 09:00:00 TS 18.8122 -45.3504 main 1711 1711 P_____________ AL041999 18.8122 -45.3504 TS 55 994 0 14 311
1999231N14341 1999 64 NA NA CINDY 1999-08-25 12:00:00 TS 19.3000 -45.9000 55 994 hurdat_atl main 1736 1736 O_____________ hurdat_atl AL041999 19.3000 -45.9000 TS 55 994 0 15 313
1999231N14341 1999 64 NA NA CINDY 1999-08-25 15:00:00 TS 19.8200 -46.5003 main 1760 1760 P_____________ AL041999 19.8200 -46.5003 TS 57 992 0 16 314
1999231N14341 1999 64 NA NA CINDY 1999-08-25 18:00:00 TS 20.4000 -47.1000 60 990 hurdat_atl main 1795 1795 O_____________ hurdat_atl AL041999 20.4000 -47.1000 TS 60 990 0 16 319
1999231N14341 1999 64 NA NA CINDY 1999-08-25 21:00:00 TS 21.0421 -47.6430 main 1834 1832 P_____________ AL041999 21.0421 -47.6430 TS 62 988 0 17 322
1999231N14341 1999 64 NA NA CINDY 1999-08-26 00:00:00 TS 21.7000 -48.2000 65 987 hurdat_atl main 1837 1801 O_____________ hurdat_atl AL041999 21.7000 -48.2000 HU 65 987 1 17 319
1999231N14341 1999 64 NA NA CINDY 1999-08-26 03:00:00 TS 22.2999 -48.8356 main 1803 1747 P_____________ AL041999 22.2999 -48.8356 HU 65 987 1 17 315
1999231N14341 1999 64 NA NA CINDY 1999-08-26 06:00:00 TS 22.9000 -49.5000 65 987 hurdat_atl main 1747 1706 O_____________ hurdat_atl AL041999 22.9000 -49.5000 HU 65 987 1 18 316
1999231N14341 1999 64 NA NA CINDY 1999-08-26 09:00:00 TS 23.5498 -50.1578 main 1696 1663 P_____________ AL041999 23.5498 -50.1578 HU 65 987 1 18 317
1999231N14341 1999 64 NA NA CINDY 1999-08-26 12:00:00 TS 24.2000 -50.8000 65 987 hurdat_atl main 1663 1631 O_____________ hurdat_atl AL041999 24.2000 -50.8000 HU 65 987 1 17 318
1999231N14341 1999 64 NA NA CINDY 1999-08-26 15:00:00 TS 24.8222 -51.4155 main 1631 1604 P_____________ AL041999 24.8222 -51.4155 HU 67 985 1 16 318
1999231N14341 1999 64 NA NA CINDY 1999-08-26 18:00:00 TS 25.4000 -52.0000 70 984 hurdat_atl main 1604 1581 O_____________ hurdat_atl AL041999 25.4000 -52.0000 HU 70 984 1 15 317
1999231N14341 1999 64 NA NA CINDY 1999-08-26 21:00:00 TS 25.9296 -52.5506 main 1577 1563 P_____________ AL041999 25.9296 -52.5506 HU 75 981 1 14 315
1999231N14341 1999 64 NA NA CINDY 1999-08-27 00:00:00 TS 26.4000 -53.1000 80 978 hurdat_atl main 1563 1538 O_____________ hurdat_atl AL041999 26.4000 -53.1000 HU 80 978 1 14 311
1999231N14341 1999 64 NA NA CINDY 1999-08-27 03:00:00 TS 26.8299 -53.7002 main 1538 1517 P_____________ AL041999 26.8299 -53.7002 HU 80 978 1 13 307
1999231N14341 1999 64 NA NA CINDY 1999-08-27 06:00:00 TS 27.2000 -54.3000 80 978 hurdat_atl main 1517 1500 O_____________ hurdat_atl AL041999 27.2000 -54.3000 HU 80 978 1 13 303
1999231N14341 1999 64 NA NA CINDY 1999-08-27 09:00:00 TS 27.5224 -54.8803 main 1493 1478 P_____________ AL041999 27.5224 -54.8803 HU 85 974 2 11 302
1999231N14341 1999 64 NA NA CINDY 1999-08-27 12:00:00 TS 27.8000 -55.4000 90 970 hurdat_atl main 1478 1466 O_____________ hurdat_atl AL041999 27.8000 -55.4000 HU 90 970 2 10 303
1999231N14341 1999 64 NA NA CINDY 1999-08-27 15:00:00 TS 28.0647 -55.8303 main 1474 1460 P_____________ AL041999 28.0647 -55.8303 HU 90 970 2 9 305
1999231N14341 1999 64 NA NA CINDY 1999-08-27 18:00:00 TS 28.3000 -56.2000 90 970 hurdat_atl main 1463 1451 O_____________ hurdat_atl AL041999 28.3000 -56.2000 HU 90 970 2 8 303
1999231N14341 1999 64 NA NA CINDY 1999-08-27 21:00:00 TS 28.4924 -56.5653 main 1453 1447 P_____________ AL041999 28.4924 -56.5653 HU 95 965 2 7 303
1999231N14341 1999 64 NA NA CINDY 1999-08-28 00:00:00 TS 28.7000 -56.9000 100 961 hurdat_atl main 1451 1445 O_____________ hurdat_atl AL041999 28.7000 -56.9000 HU 100 961 3 7 310
1999231N14341 1999 64 NA NA CINDY 1999-08-28 03:00:00 TS 28.9699 -57.2151 main 1459 1453 P_____________ AL041999 28.9699 -57.2151 HU 107 954 3 8 319
1999231N14341 1999 64 NA NA CINDY 1999-08-28 06:00:00 TS 29.3000 -57.5000 115 948 hurdat_atl main 1469 1469 O_____________ hurdat_atl AL041999 29.3000 -57.5000 HU 115 948 4 9 327
1999231N14341 1999 64 NA NA CINDY 1999-08-28 09:00:00 TS 29.6924 -57.7576 main 1489 1489 P_____________ AL041999 29.6924 -57.7576 HU 117 945 4 9 331
1999231N14341 1999 64 NA NA CINDY 1999-08-28 12:00:00 TS 30.1000 -58.0000 120 942 hurdat_atl main 1516 1516 O_____________ hurdat_atl AL041999 30.1000 -58.0000 HU 120 942 4 9 329
1999231N14341 1999 64 NA NA CINDY 1999-08-28 15:00:00 TS 30.4576 -58.2947 main 1539 1534 P_____________ AL041999 30.4576 -58.2947 HU 120 942 4 8 328
1999231N14341 1999 64 NA NA CINDY 1999-08-28 18:00:00 TS 30.8000 -58.5000 120 943 hurdat_atl main 1535 1504 O_____________ hurdat_atl AL041999 30.8000 -58.5000 HU 120 943 4 7 346
1999231N14341 1999 64 NA NA CINDY 1999-08-28 21:00:00 TS 31.1424 -58.4880 main 1504 1466 P_____________ AL041999 31.1424 -58.4880 HU 120 943 4 7 7
1999231N14341 1999 64 NA NA CINDY 1999-08-29 00:00:00 TS 31.5000 -58.4000 120 944 hurdat_atl main 1466 1425 O_____________ hurdat_atl AL041999 31.5000 -58.4000 HU 120 944 4 8 5
1999231N14341 1999 64 NA NA CINDY 1999-08-29 03:00:00 TS 31.8925 -58.4072 main 1425 1384 P_____________ AL041999 31.8925 -58.4072 HU 117 946 4 8 1
1999231N14341 1999 64 NA NA CINDY 1999-08-29 06:00:00 TS 32.3000 -58.4000 115 948 hurdat_atl main 1384 1343 O_____________ hurdat_atl AL041999 32.3000 -58.4000 HU 115 948 4 8 3
1999231N14341 1999 64 NA NA CINDY 1999-08-29 09:00:00 TS 32.7073 -58.3596 main 1343 1311 P_____________ AL041999 32.7073 -58.3596 HU 107 954 3 8 12
1999231N14341 1999 64 NA NA CINDY 1999-08-29 12:00:00 TS 33.1000 -58.2000 100 961 hurdat_atl main 1311 1284 O_____________ hurdat_atl AL041999 33.1000 -58.2000 HU 100 961 3 9 28
1999231N14341 1999 64 NA NA CINDY 1999-08-29 15:00:00 TS 33.4724 -57.8677 main 1284 1272 P_____________ AL041999 33.4724 -57.8677 HU 97 963 3 10 44
1999231N14341 1999 64 NA NA CINDY 1999-08-29 18:00:00 TS 33.8000 -57.4000 95 965 hurdat_atl main 1276 1271 O_____________ hurdat_atl AL041999 33.8000 -57.4000 HU 95 965 2 10 55
1999231N14341 1999 64 NA NA CINDY 1999-08-29 21:00:00 TS 34.0728 -56.8500 main 1276 1272 P_____________ AL041999 34.0728 -56.8500 HU 92 967 2 10 61
1999231N14341 1999 64 NA NA CINDY 1999-08-30 00:00:00 TS 34.3000 -56.3000 90 970 hurdat_atl main 1279 1269 O_____________ hurdat_atl AL041999 34.3000 -56.3000 HU 90 970 2 9 63
1999231N14341 1999 64 NA NA CINDY 1999-08-30 03:00:00 TS 34.4922 -55.8620 main 1269 1257 P_____________ AL041999 34.4922 -55.8620 HU 90 970 2 8 59
1999231N14341 1999 64 NA NA CINDY 1999-08-30 06:00:00 TS 34.7000 -55.5000 90 970 hurdat_atl main 1260 1239 O_____________ hurdat_atl AL041999 34.7000 -55.5000 HU 90 970 2 7 49
1999231N14341 1999 64 NA NA CINDY 1999-08-30 09:00:00 TS 34.9697 -55.1921 main 1239 1219 P_____________ AL041999 34.9697 -55.1921 HU 85 974 2 8 39
1999231N14341 1999 64 NA NA CINDY 1999-08-30 12:00:00 TS 35.3000 -54.9000 80 978 hurdat_atl main 1219 1189 O_____________ hurdat_atl AL041999 35.3000 -54.9000 HU 80 978 1 8 33
1999231N14341 1999 64 NA NA CINDY 1999-08-30 15:00:00 TS 35.6766 -54.6237 main 1189 1161 P_____________ AL041999 35.6766 -54.6237 HU 80 978 1 10 35
1999231N14341 1999 64 NA NA CINDY 1999-08-30 18:00:00 TS 36.1000 -54.2000 80 978 hurdat_atl main 1165 1123 O_____________ hurdat_atl AL041999 36.1000 -54.2000 HU 80 978 1 12 47
1999231N14341 1999 64 NA NA CINDY 1999-08-30 21:00:00 TS 36.5199 -53.4964 main 1123 1068 P_____________ AL041999 36.5199 -53.4964 HU 75 981 1 16 55
1999231N14341 1999 64 NA NA CINDY 1999-08-31 00:00:00 TS 37.0000 -52.6000 70 984 hurdat_atl main 1068 1019 O_____________ hurdat_atl AL041999 37.0000 -52.6000 HU 70 984 1 18 56
1999231N14341 1999 64 NA NA CINDY 1999-08-31 03:00:00 TS 37.5017 -51.6554 main 1019 956 P_____________ AL041999 37.5017 -51.6554 HU 65 987 1 20 53
1999231N14341 1999 64 NA NA CINDY 1999-08-31 06:00:00 TS 38.2000 -50.6000 60 990 hurdat_atl main 957 883 O_____________ hurdat_atl AL041999 38.2000 -50.6000 TS 60 990 0 24 46
1999231N14341 1999 64 NA NA CINDY 1999-08-31 09:00:00 TS 39.2102 -49.4410 main 878 803 P_____________ AL041999 39.2102 -49.4410 TS 55 993 0 29 40
1999231N14341 1999 64 NA NA CINDY 1999-08-31 12:00:00 TS 40.4000 -48.2000 50 997 hurdat_atl main 797 O_____________ hurdat_atl AL041999 40.4000 -48.2000 TS 50 997 0 30 38

IBTrACS Databaseについて

本データベースは、米国NOAAが公開する1842年以降の世界の熱帯低気圧のベストトラックデータアーカイブInternational Best Track Archive for Climate Stewardship (IBTrACS)を、ウェブで閲覧しやすい形式に変換したものです。

最終更新日:2021-12-06